Sinclair, Illinois
Current Conditions -  °F | °C
As of 9:15 AM on Friday 31 Oct 2014 (Local Time) from KIJX Reporting Station
Clear Clear  
Wind Chill: 28°   Ceiling: Unl
Heat Index: 39°   Visibility: 10mi
Dew Point: 24°   Wind: 25mph
Humidity: 55%   Direction: 330°NNW
Pressure: 30.27"   Gusts: 33mph
Location:  39.7413°N, 90.2138°W
Report Text: KIJX 311415Z AUTO 33022G29KT 10SM CLR 04/M04 A3027 RMK AO2 T00381045
Loading
Personal Weather Stations






























Interactive Weather Map
Tropical Storm Tracking
New forecast layout! Learn more

10-Day Weather Forecast

Advertisements
Track Severe Weather on mobile